createdAt,value
2023-03-16T00:00:24.581Z,2.20
2023-03-16T00:02:53.198Z,2.35
2023-03-16T00:05:21.875Z,2.22
2023-03-16T00:07:50.025Z,1.67
2023-03-16T00:10:18.332Z,1.17
2023-03-16T00:12:46.619Z,1.80
2023-03-16T00:15:16.213Z,2.45
2023-03-16T00:17:48.775Z,1.58
2023-03-16T00:20:18.231Z,2.05
2023-03-16T00:22:46.841Z,1.17
2023-03-16T00:25:15.808Z,2.03
2023-03-16T00:27:43.994Z,1.25
2023-03-16T00:30:13.415Z,1.52
2023-03-16T00:32:43.533Z,1.40
2023-03-16T00:35:11.800Z,1.17
2023-03-16T00:37:43.007Z,1.35
2023-03-16T00:40:13.418Z,0.88
2023-03-16T00:42:41.983Z,1.02
2023-03-16T00:45:11.944Z,1.30
2023-03-16T00:47:42.315Z,1.38
2023-03-16T00:50:11.776Z,1.20
2023-03-16T00:52:40.221Z,1.70
2023-03-16T00:55:09.622Z,1.00
2023-03-16T00:57:37.984Z,1.60
2023-03-16T01:00:15.312Z,1.25
2023-03-16T01:02:45.426Z,1.10
2023-03-16T01:05:15.480Z,1.70
2023-03-16T01:07:45.139Z,1.42
2023-03-16T01:10:14.378Z,1.63
2023-03-16T01:12:45.531Z,1.42
2023-03-16T01:15:13.950Z,1.45
2023-03-16T01:17:42.214Z,0.88
2023-03-16T01:20:14.440Z,1.52
2023-03-16T01:22:43.010Z,1.95
2023-03-16T01:25:14.684Z,1.90
2023-03-16T01:27:43.413Z,1.02
2023-03-16T01:30:13.023Z,1.58
2023-03-16T01:32:41.741Z,1.83
2023-03-16T01:35:11.819Z,1.52
2023-03-16T01:37:40.104Z,1.35
2023-03-16T01:42:49.196Z,1.08
2023-03-16T01:46:02.694Z,2.63
2023-03-16T01:49:09.472Z,1.30
2023-03-16T01:51:44.376Z,1.42
2023-03-16T01:54:20.699Z,1.10
2023-03-16T01:56:55.860Z,1.27
2023-03-16T01:59:32.110Z,1.25
2023-03-16T02:02:01.203Z,1.33
2023-03-16T02:04:42.613Z,1.30
2023-03-16T02:07:17.173Z,1.02
2023-03-16T02:09:49.501Z,1.17
2023-03-16T02:12:19.842Z,1.92
2023-03-16T02:17:23.695Z,1.20
2023-03-16T02:20:07.327Z,1.85
2023-03-16T02:22:42.229Z,1.27
2023-03-16T02:25:11.723Z,1.65
2023-03-16T02:27:47.507Z,1.83
2023-03-16T02:30:19.132Z,1.50
2023-03-16T02:33:06.114Z,1.48
2023-03-16T02:35:35.180Z,1.98
2023-03-16T02:38:04.646Z,1.45
2023-03-16T02:40:39.110Z,1.45
2023-03-16T02:43:16.238Z,1.48
2023-03-16T02:45:53.669Z,1.60
2023-03-16T02:48:28.607Z,0.70
2023-03-16T02:50:57.680Z,1.60
2023-03-16T02:53:27.606Z,1.73
2023-03-16T02:55:58.638Z,1.33
2023-03-16T02:58:27.011Z,1.58
2023-03-16T03:00:57.125Z,1.35
2023-03-16T03:03:26.032Z,1.95
2023-03-16T03:05:54.266Z,1.02
2023-03-16T03:08:23.574Z,1.80
2023-03-16T03:10:52.206Z,2.72
2023-03-16T03:13:21.037Z,1.17
2023-03-16T03:15:49.314Z,1.50
2023-03-16T03:18:19.021Z,1.38
2023-03-16T03:20:47.295Z,1.30
2023-03-16T03:23:16.392Z,1.30
2023-03-16T03:25:45.389Z,2.20
2023-03-16T03:28:15.374Z,2.60
2023-03-16T03:30:44.446Z,1.80
2023-03-16T03:33:13.025Z,1.90
2023-03-16T03:35:43.137Z,1.65
2023-03-16T03:38:12.263Z,1.10
2023-03-16T03:40:44.824Z,2.05
2023-03-16T03:43:14.198Z,1.70
2023-03-16T03:45:45.112Z,1.77
2023-03-16T03:48:14.162Z,2.35
2023-03-16T03:50:44.050Z,2.42
2023-03-16T03:53:29.090Z,1.20
2023-03-16T03:56:16.148Z,1.95
2023-03-16T03:58:44.708Z,1.38
2023-03-16T04:01:16.043Z,1.65
2023-03-16T04:03:45.272Z,2.38
2023-03-16T04:06:16.598Z,1.05
2023-03-16T04:08:45.149Z,1.58
2023-03-16T04:11:17.230Z,2.10
2023-03-16T04:13:45.786Z,1.85
2023-03-16T04:16:16.199Z,2.15
2023-03-16T04:18:46.256Z,1.67
2023-03-16T04:21:18.170Z,1.63
2023-03-16T04:23:48.712Z,1.63
2023-03-16T04:26:17.957Z,2.88
2023-03-16T04:28:48.769Z,2.38
2023-03-16T04:31:20.090Z,2.00
2023-03-16T04:33:49.242Z,1.80
2023-03-16T04:36:19.218Z,1.65
2023-03-16T04:38:48.418Z,1.75
2023-03-16T04:41:16.998Z,2.20
2023-03-16T04:44:11.660Z,1.52
2023-03-16T04:46:40.406Z,2.30
2023-03-16T04:49:10.950Z,1.77
2023-03-16T04:51:42.629Z,2.20
2023-03-16T04:54:15.441Z,2.22
2023-03-16T04:56:45.266Z,2.25
2023-03-16T04:59:39.522Z,1.63
2023-03-16T05:02:19.507Z,1.58
2023-03-16T05:04:48.423Z,1.95
2023-03-16T05:07:19.162Z,1.90
2023-03-16T05:09:51.414Z,2.17
2023-03-16T05:12:20.643Z,1.80
2023-03-16T05:14:53.358Z,2.85
2023-03-16T05:17:27.823Z,2.35
2023-03-16T05:19:56.281Z,2.78
2023-03-16T05:22:26.930Z,2.15
2023-03-16T05:25:27.512Z,2.08
2023-03-16T05:27:59.431Z,3.03
2023-03-16T05:30:57.476Z,2.33
2023-03-16T05:33:28.875Z,1.95
2023-03-16T05:36:03.470Z,2.50
2023-03-16T05:38:36.814Z,1.90
2023-03-16T05:41:06.424Z,2.30
2023-03-16T05:43:55.320Z,2.00
2023-03-16T05:46:26.906Z,2.03
2023-03-16T05:48:57.167Z,2.47
2023-03-16T05:51:26.784Z,2.17
2023-03-16T05:53:58.042Z,1.90
2023-03-16T05:56:33.513Z,2.10
2023-03-16T05:59:03.097Z,1.60
2023-03-16T06:01:33.655Z,2.45
2023-03-16T06:04:03.594Z,2.20
2023-03-16T06:06:35.384Z,1.88
2023-03-16T06:09:12.083Z,2.63
2023-03-16T06:11:40.521Z,3.45
2023-03-16T06:14:09.514Z,2.38
2023-03-16T06:16:38.631Z,3.35
2023-03-16T06:19:06.858Z,2.75
2023-03-16T06:21:35.479Z,1.90
2023-03-16T06:24:11.967Z,2.50
2023-03-16T06:26:41.218Z,2.95
2023-03-16T06:29:13.111Z,2.42
2023-03-16T06:31:42.710Z,2.83
2023-03-16T06:34:11.996Z,2.20
2023-03-16T06:36:41.435Z,2.42
2023-03-16T06:39:15.335Z,3.15
2023-03-16T06:41:47.649Z,2.17
2023-03-16T06:44:18.170Z,3.00
2023-03-16T06:47:12.525Z,2.67
2023-03-16T06:49:41.822Z,1.85
2023-03-16T06:52:17.454Z,2.33
2023-03-16T06:54:47.626Z,2.25
2023-03-16T06:57:17.100Z,2.25
2023-03-16T06:59:45.559Z,2.13
2023-03-16T07:02:15.323Z,2.20
2023-03-16T07:04:43.878Z,3.00
2023-03-16T07:07:12.996Z,2.05
2023-03-16T07:09:42.101Z,2.35
2023-03-16T07:12:12.623Z,2.28
2023-03-16T07:14:42.119Z,2.45
2023-03-16T07:17:12.978Z,2.28
2023-03-16T07:19:41.635Z,1.73
2023-03-16T07:22:10.332Z,1.88
2023-03-16T07:24:41.734Z,1.73
2023-03-16T07:27:12.641Z,1.48
2023-03-16T07:29:41.880Z,2.08
2023-03-16T07:32:11.827Z,2.25
2023-03-16T07:34:41.920Z,1.92
2023-03-16T07:37:10.963Z,2.25
2023-03-16T07:39:40.481Z,2.25
2023-03-16T07:42:22.719Z,1.90
2023-03-16T07:45:12.248Z,2.03
2023-03-16T07:47:41.741Z,2.15
2023-03-16T07:50:30.552Z,2.67
2023-03-16T07:52:59.645Z,2.38
2023-03-16T07:55:28.622Z,1.98
2023-03-16T07:57:58.684Z,2.65
2023-03-16T08:00:32.859Z,2.05
2023-03-16T08:03:02.096Z,2.78
2023-03-16T08:05:32.774Z,2.03
2023-03-16T08:08:03.312Z,1.83
2023-03-16T08:10:33.911Z,2.63
2023-03-16T08:13:13.265Z,2.28
2023-03-16T08:15:48.182Z,2.50
2023-03-16T08:18:27.096Z,2.33
2023-03-16T08:20:56.044Z,2.00
2023-03-16T08:23:25.195Z,1.85
2023-03-16T08:25:55.319Z,1.75
2023-03-16T08:28:26.620Z,2.00
2023-03-16T08:30:58.917Z,1.67
2023-03-16T08:33:36.081Z,1.50
2023-03-16T08:36:07.849Z,1.35
2023-03-16T08:38:36.745Z,1.67
2023-03-16T08:41:09.305Z,1.27
2023-03-16T08:43:39.160Z,1.75
2023-03-16T08:46:08.103Z,1.13
2023-03-16T08:48:50.142Z,1.70
2023-03-16T08:51:19.020Z,1.40
2023-03-16T08:53:47.204Z,1.88
2023-03-16T08:56:16.046Z,2.25
2023-03-16T08:58:46.042Z,2.50
2023-03-16T09:01:17.994Z,1.55
2023-03-16T09:03:46.760Z,1.20
2023-03-16T09:06:18.221Z,1.55
2023-03-16T09:08:47.788Z,1.20
2023-03-16T09:11:18.871Z,1.20
2023-03-16T09:13:48.597Z,1.27
2023-03-16T09:16:17.292Z,1.38
2023-03-16T09:18:45.763Z,1.15
2023-03-16T09:21:14.298Z,0.82
2023-03-16T09:23:43.091Z,1.10
2023-03-16T09:26:12.612Z,1.17
2023-03-16T09:28:42.570Z,1.08
2023-03-16T09:31:17.926Z,0.90
2023-03-16T09:33:47.408Z,0.65
2023-03-16T09:36:16.402Z,1.17
2023-03-16T09:38:45.509Z,0.95
2023-03-16T09:41:28.826Z,0.55
2023-03-16T09:44:06.526Z,0.60
2023-03-16T09:46:42.437Z,0.82
2023-03-16T09:49:12.315Z,0.70
2023-03-16T09:51:45.939Z,0.63
2023-03-16T09:54:26.606Z,0.70
2023-03-16T09:56:56.782Z,0.75
2023-03-16T09:59:27.829Z,0.68
2023-03-16T10:02:06.648Z,0.70
2023-03-16T10:04:45.133Z,1.02
2023-03-16T10:07:24.495Z,0.60
2023-03-16T10:09:58.815Z,0.60
2023-03-16T10:12:31.984Z,0.65
2023-03-16T10:15:06.102Z,0.57
2023-03-16T10:17:41.660Z,0.47
2023-03-16T10:20:17.947Z,0.82
2023-03-16T10:22:48.117Z,0.35
2023-03-16T10:25:21.500Z,0.30
2023-03-16T10:27:50.005Z,1.00
2023-03-16T10:30:25.002Z,0.52
2023-03-16T10:32:55.442Z,0.77
2023-03-16T10:35:38.863Z,0.73
2023-03-16T10:38:09.546Z,0.38
2023-03-16T10:40:40.608Z,0.63
2023-03-16T10:43:10.201Z,0.73
2023-03-16T10:45:38.537Z,0.82
2023-03-16T10:48:10.332Z,0.43
2023-03-16T10:50:38.595Z,0.90
2023-03-16T10:53:18.038Z,0.82
2023-03-16T10:55:48.365Z,0.60
2023-03-16T10:58:26.227Z,1.00
2023-03-16T11:00:55.166Z,0.45
2023-03-16T11:03:28.875Z,0.43
2023-03-16T11:06:02.721Z,0.50
2023-03-16T11:08:35.050Z,0.98
2023-03-16T11:11:13.298Z,0.45
2023-03-16T11:13:46.144Z,0.57
2023-03-16T11:16:26.029Z,0.65
2023-03-16T11:18:58.750Z,0.32
2023-03-16T11:21:39.765Z,1.10
2023-03-16T11:24:17.168Z,0.85
2023-03-16T11:26:48.902Z,0.40
2023-03-16T11:29:22.868Z,0.98
2023-03-16T11:31:56.238Z,0.90
2023-03-16T11:34:29.660Z,0.28
2023-03-16T11:37:02.085Z,0.63
2023-03-16T11:39:40.496Z,0.52
2023-03-16T11:42:25.152Z,0.60
2023-03-16T11:45:01.471Z,0.88
2023-03-16T11:48:05.005Z,0.98
2023-03-16T11:50:44.965Z,0.68
2023-03-16T11:53:24.172Z,0.40
2023-03-16T11:56:00.798Z,0.60
2023-03-16T11:58:39.997Z,0.60
2023-03-16T12:01:18.294Z,0.90
2023-03-16T12:04:13.446Z,0.60
2023-03-16T12:07:09.237Z,0.47
2023-03-16T12:10:03.837Z,0.77
2023-03-16T12:12:43.287Z,0.60
2023-03-16T12:15:29.964Z,0.80
2023-03-16T12:18:03.636Z,0.57
2023-03-16T12:20:39.413Z,0.40
2023-03-16T12:23:14.835Z,0.95
2023-03-16T12:25:47.746Z,0.57
2023-03-16T12:28:26.327Z,0.30
2023-03-16T12:31:06.308Z,0.28
2023-03-16T12:33:52.998Z,0.73
2023-03-16T12:36:50.405Z,0.28
2023-03-16T12:39:33.019Z,0.45
2023-03-16T12:42:13.489Z,0.52
2023-03-16T12:44:48.882Z,0.50
2023-03-16T12:49:52.573Z,0.77
2023-03-16T12:52:21.008Z,0.77
2023-03-16T12:55:06.606Z,0.50
2023-03-16T12:57:36.356Z,0.68
2023-03-16T13:00:09.754Z,0.55
2023-03-16T13:02:39.939Z,0.40
2023-03-16T13:05:11.750Z,0.82
2023-03-16T13:07:48.547Z,0.80
2023-03-16T13:10:21.760Z,0.60
2023-03-16T13:12:51.716Z,0.30
2023-03-16T13:15:31.739Z,0.43
2023-03-16T13:18:21.365Z,0.50
2023-03-16T13:20:57.103Z,0.60
2023-03-16T13:23:28.947Z,0.88
2023-03-16T13:26:14.553Z,0.40
2023-03-16T13:28:45.420Z,0.57
2023-03-16T13:31:25.330Z,0.75
2023-03-16T13:33:56.926Z,0.30
2023-03-16T13:36:27.150Z,0.75
2023-03-16T13:39:05.151Z,0.40
2023-03-16T13:41:35.078Z,0.82
2023-03-16T13:44:05.655Z,0.60
2023-03-16T13:46:34.267Z,0.95
2023-03-16T13:49:02.879Z,0.30
2023-03-16T13:51:35.457Z,0.30
2023-03-16T13:54:11.451Z,0.93
2023-03-16T13:56:44.404Z,0.20
2023-03-16T13:59:12.864Z,0.40
2023-03-16T14:01:46.000Z,0.60
2023-03-16T14:04:18.842Z,0.43
2023-03-16T14:06:56.225Z,0.70
2023-03-16T14:09:28.733Z,0.70
2023-03-16T14:11:59.184Z,0.40
2023-03-16T14:14:30.884Z,0.43
2023-03-16T14:17:05.527Z,0.47
2023-03-16T14:19:46.488Z,0.60
2023-03-16T14:22:18.140Z,1.10
2023-03-16T14:24:52.925Z,0.57
2023-03-16T14:27:27.360Z,0.70
2023-03-16T14:30:01.115Z,0.38
2023-03-16T14:32:31.864Z,0.68
2023-03-16T14:35:22.682Z,0.70
2023-03-16T14:37:52.029Z,1.27
2023-03-16T14:40:24.296Z,0.90
2023-03-16T14:42:55.736Z,0.73
2023-03-16T14:45:27.481Z,0.43
2023-03-16T14:47:55.971Z,0.45
2023-03-16T14:50:26.528Z,0.63
2023-03-16T14:52:57.468Z,0.50
2023-03-16T14:55:26.011Z,0.68
2023-03-16T14:57:55.671Z,0.70
2023-03-16T15:00:25.815Z,1.08
2023-03-16T15:03:00.826Z,0.70
2023-03-16T15:05:35.326Z,0.47
2023-03-16T15:10:36.499Z,0.47
2023-03-16T15:13:24.520Z,0.50
2023-03-16T15:15:54.013Z,0.60
2023-03-16T15:18:22.328Z,0.90
2023-03-16T15:20:54.019Z,0.47
2023-03-16T15:23:22.365Z,1.05
2023-03-16T15:25:54.157Z,0.50
2023-03-16T15:28:25.602Z,0.68
2023-03-16T15:30:55.495Z,0.55
2023-03-16T15:33:24.905Z,0.88
2023-03-16T15:35:57.477Z,1.05
2023-03-16T15:38:28.791Z,0.70
2023-03-16T15:40:57.758Z,0.75
2023-03-16T15:43:32.045Z,0.75
2023-03-16T15:46:01.052Z,0.68
2023-03-16T15:48:29.432Z,0.70
2023-03-16T15:51:02.073Z,0.50
2023-03-16T15:53:35.888Z,0.75
2023-03-16T15:56:07.016Z,0.38
2023-03-16T15:58:38.089Z,0.47
2023-03-16T16:01:09.286Z,0.73
2023-03-16T16:03:37.604Z,0.70
2023-03-16T16:06:11.143Z,0.75
2023-03-16T16:08:39.453Z,0.60
2023-03-16T16:11:14.714Z,1.25
2023-03-16T16:13:45.416Z,0.50
2023-03-16T16:16:16.814Z,1.02
2023-03-16T16:18:46.721Z,0.63
2023-03-16T16:21:18.648Z,0.80
2023-03-16T16:23:47.729Z,0.50
2023-03-16T16:26:27.893Z,0.50
2023-03-16T16:29:03.252Z,0.80
2023-03-16T16:31:32.575Z,0.60
2023-03-16T16:34:00.741Z,0.82
2023-03-16T16:36:32.711Z,0.70
2023-03-16T16:39:00.960Z,0.75
2023-03-16T16:41:33.606Z,1.40
2023-03-16T16:44:08.199Z,0.65
2023-03-16T16:46:41.558Z,0.55
2023-03-16T16:49:16.246Z,0.93
2023-03-16T16:51:45.264Z,1.05
2023-03-16T16:54:18.109Z,0.68
2023-03-16T16:56:47.866Z,1.15
2023-03-16T16:59:20.073Z,1.00
2023-03-16T17:01:52.239Z,1.02
2023-03-16T17:04:24.767Z,0.75
2023-03-16T17:06:55.872Z,1.10
2023-03-16T17:09:24.314Z,1.38
2023-03-16T17:11:56.401Z,0.85
2023-03-16T17:14:28.227Z,0.95
2023-03-16T17:16:57.858Z,1.10
2023-03-16T17:19:28.066Z,1.30
2023-03-16T17:21:58.826Z,1.33
2023-03-16T17:24:28.740Z,1.33
2023-03-16T17:27:00.781Z,1.52
2023-03-16T17:29:32.703Z,1.20
2023-03-16T17:32:02.934Z,1.38
2023-03-16T17:34:34.062Z,1.63
2023-03-16T17:37:03.233Z,1.08
2023-03-16T17:39:33.751Z,1.10
2023-03-16T17:42:05.277Z,1.67
2023-03-16T17:44:37.077Z,1.42
2023-03-16T17:47:12.908Z,1.23
2023-03-16T17:49:41.096Z,3.08
2023-03-16T17:52:15.726Z,1.05
2023-03-16T17:54:43.918Z,1.43
2023-03-16T17:57:18.207Z,1.48
2023-03-16T17:59:48.428Z,1.65
2023-03-16T18:02:39.973Z,1.23
2023-03-16T18:05:17.371Z,1.05
2023-03-16T18:07:45.597Z,1.67
2023-03-16T18:10:16.803Z,1.00
2023-03-16T18:12:45.461Z,1.52
2023-03-16T18:15:19.337Z,1.65
2023-03-16T18:17:48.739Z,1.40
2023-03-16T18:20:23.926Z,1.90
2023-03-16T18:22:52.483Z,2.33
2023-03-16T18:25:31.468Z,1.38
2023-03-16T18:28:00.658Z,1.90
2023-03-16T18:30:31.718Z,1.95
2023-03-16T18:33:01.180Z,1.38
2023-03-16T18:35:29.855Z,1.52
2023-03-16T18:37:58.384Z,1.75
2023-03-16T18:40:27.334Z,1.48
2023-03-16T18:42:56.023Z,1.65
2023-03-16T18:45:24.527Z,1.40
2023-03-16T18:47:56.229Z,1.20
2023-03-16T18:50:27.456Z,2.08
2023-03-16T18:52:57.695Z,1.55
2023-03-16T18:55:28.793Z,1.50
2023-03-16T18:57:58.674Z,1.67
2023-03-16T19:00:29.715Z,1.42
2023-03-16T19:03:03.516Z,1.50
2023-03-16T19:05:35.939Z,2.45
2023-03-16T19:08:06.623Z,1.85
2023-03-16T19:10:37.469Z,1.33
2023-03-16T19:13:14.493Z,1.30
2023-03-16T19:15:42.690Z,1.92
2023-03-16T19:18:12.929Z,2.03
2023-03-16T19:20:43.591Z,2.08
2023-03-16T19:23:19.295Z,1.30
2023-03-16T19:25:48.067Z,2.28
2023-03-16T19:28:19.185Z,2.70
2023-03-16T19:30:47.442Z,1.75
2023-03-16T19:33:25.971Z,2.45
2023-03-16T19:35:54.899Z,1.88
2023-03-16T19:38:24.411Z,2.10
2023-03-16T19:40:55.996Z,2.58
2023-03-16T19:43:25.689Z,1.58
2023-03-16T19:45:54.992Z,2.22
2023-03-16T19:48:31.169Z,1.83
2023-03-16T19:50:59.379Z,2.28
2023-03-16T19:53:30.566Z,2.33
2023-03-16T19:55:58.822Z,2.60
2023-03-16T19:58:32.102Z,1.73
2023-03-16T20:01:01.151Z,2.30
2023-03-16T20:03:35.840Z,2.15
2023-03-16T20:06:04.316Z,2.25
2023-03-16T20:08:33.340Z,2.10
2023-03-16T20:11:05.760Z,1.88
2023-03-16T20:13:34.644Z,3.13
2023-03-16T20:16:03.332Z,2.30
2023-03-16T20:18:32.982Z,1.92
2023-03-16T20:21:01.195Z,1.67
2023-03-16T20:23:31.279Z,2.85
2023-03-16T20:26:02.746Z,2.90
2023-03-16T20:28:35.604Z,3.08
2023-03-16T20:31:07.970Z,1.95
2023-03-16T20:33:37.847Z,2.22
2023-03-16T20:36:07.221Z,2.45
2023-03-16T20:38:35.464Z,2.00
2023-03-16T20:41:04.304Z,2.60
2023-03-16T20:43:33.818Z,3.47
2023-03-16T20:46:03.806Z,2.22
2023-03-16T20:48:32.828Z,1.88
2023-03-16T20:51:02.769Z,2.80
2023-03-16T20:53:31.327Z,2.78
2023-03-16T20:55:59.575Z,2.20
2023-03-16T20:58:29.130Z,2.65
2023-03-16T21:00:58.319Z,2.35
2023-03-16T21:03:28.579Z,2.33
2023-03-16T21:05:59.998Z,2.22
2023-03-16T21:08:29.839Z,2.13
2023-03-16T21:10:59.844Z,3.08
2023-03-16T21:13:31.816Z,2.60
2023-03-16T21:16:01.888Z,3.65
2023-03-16T21:18:31.092Z,2.80
2023-03-16T21:20:59.337Z,2.50
2023-03-16T21:23:29.158Z,2.83
2023-03-16T21:26:00.758Z,2.53
2023-03-16T21:28:32.663Z,2.13
2023-03-16T21:31:01.245Z,2.35
2023-03-16T21:33:32.670Z,2.45
2023-03-16T21:36:02.091Z,2.80
2023-03-16T21:38:33.006Z,2.15
2023-03-16T21:41:01.722Z,2.28
2023-03-16T21:43:31.524Z,2.55
2023-03-16T21:45:59.944Z,2.30
2023-03-16T21:48:35.949Z,2.33
2023-03-16T21:51:04.829Z,2.67
2023-03-16T21:53:34.877Z,1.90
2023-03-16T21:56:03.407Z,1.98
2023-03-16T21:58:32.403Z,2.45
2023-03-16T22:01:00.615Z,2.30
2023-03-16T22:03:47.925Z,2.13
2023-03-16T22:06:18.454Z,1.75
2023-03-16T22:08:49.249Z,1.88
2023-03-16T22:11:19.061Z,2.28
2023-03-16T22:13:48.328Z,2.35
2023-03-16T22:16:17.961Z,1.45
2023-03-16T22:18:47.436Z,2.63
2023-03-16T22:21:29.369Z,1.98
2023-03-16T22:23:59.719Z,1.83
2023-03-16T22:26:29.959Z,2.58
2023-03-16T22:28:59.708Z,2.28
2023-03-16T22:31:32.049Z,2.15
2023-03-16T22:34:00.895Z,1.90
2023-03-16T22:36:30.973Z,2.60
2023-03-16T22:39:03.445Z,2.00
2023-03-16T22:41:32.761Z,2.22
2023-03-16T22:44:01.721Z,2.08
2023-03-16T22:46:30.663Z,1.85
2023-03-16T22:48:58.988Z,2.38
2023-03-16T22:51:29.530Z,1.70
2023-03-16T22:54:02.703Z,1.60
2023-03-16T22:56:32.349Z,2.08
2023-03-16T22:59:03.325Z,2.30
2023-03-16T23:01:35.176Z,2.05
2023-03-16T23:04:03.742Z,2.13
2023-03-16T23:06:33.526Z,2.10
2023-03-16T23:09:03.680Z,2.78
2023-03-16T23:11:33.998Z,2.15
2023-03-16T23:14:02.722Z,1.75
2023-03-16T23:16:35.655Z,2.60
2023-03-16T23:19:09.756Z,2.03
2023-03-16T23:21:41.185Z,0.98
2023-03-16T23:24:10.914Z,2.10
2023-03-16T23:26:39.822Z,1.90
2023-03-16T23:29:08.204Z,2.05
2023-03-16T23:31:37.041Z,2.63
2023-03-16T23:34:11.656Z,2.10
2023-03-16T23:36:40.871Z,1.92
2023-03-16T23:39:11.599Z,1.95
2023-03-16T23:41:43.094Z,1.80
2023-03-16T23:44:16.614Z,1.73
2023-03-16T23:46:45.296Z,2.45
2023-03-16T23:49:19.314Z,1.30
2023-03-16T23:51:48.279Z,2.15
2023-03-16T23:54:20.782Z,2.75
2023-03-16T23:56:49.266Z,2.08
2023-03-16T23:59:17.757Z,1.77
